Dothan Regional Airport
KDHN : now visible

Airfield :











YOU CAN JOIN US ON...

 
LOGIN :

Register | Disclaimer

   EN    FR    IT 

 









Legend :    VFR   Marginal VFR   IFR   Intensive IFR   Very Intensive IFR
Visi :
Ceiling :
>= 8 km
>= 3000ft
5 to 8 km
1000 to 3000 ft
1500m to 5 km
500 to 1000 ft
800 to 1500m
200 to 500 ft
< 800m
< 200 ft
Symbols :   Thunderstorms  Fog  Heavy snow  Heavy precipitations  Wind > 20 kt






- Airport Elevation : 401 ft
- IATA code : DHN


KDHN - Dothan Regional

CURRENT METAR :
  • 141653Z 05008KT 10SM FEW017 SCT065 09/03 A3025 RMK AO2 PRESFR SLP244 T00940028

EXPIRED METARs :
  • 141612Z 05003KT 10SM SCT020 SCT042 OVC070 09/03 A3028 RMK AO2 T00890028

TAF KDHN
Valid from the 14 at 12:00 until the 15 at 12:00 UTC


141120Z 1412/1512 06006KT P6SM BKN040
FM142200 02008KT P6SM -RA OVC015
FM150200 36009KT P6SM -RA OVC007



MET'MAP, your aeronautical weather chart ! - Copyright ORBIFLY December 2007 - Disclaimer

ORBIFLY MET'MAP TEAM :

Programming & Development : Alexandra Zaïnal
Concept & Development : Baudouin d'Aumeries
Co-Development & Prog : Marc-Olivier Méhu
Technical & hardware support : Manuel Goepfert

Contact : metmap@orbifly.com




SOURCES & CREDITS :

   NOAA       Earth
Advisory